sensor_id;sensor_type;location;lat;lon;timestamp;pressure;altitude;pressure_sealevel;temperature;humidity
68525;BME280;55524;51.380;13.372;2023-02-17T00:01:25;101099.69;;;5.91;99.22
68525;BME280;55524;51.380;13.372;2023-02-17T00:03:52;101091.78;;;5.98;98.57
68525;BME280;55524;51.380;13.372;2023-02-17T00:06:22;101089.03;;;6.13;97.87
68525;BME280;55524;51.380;13.372;2023-02-17T00:08:49;101081.94;;;6.24;97.82
68525;BME280;55524;51.380;13.372;2023-02-17T00:11:15;101087.00;;;6.46;96.36
68525;BME280;55524;51.380;13.372;2023-02-17T00:13:42;101080.81;;;6.51;96.21
68525;BME280;55524;51.380;13.372;2023-02-17T00:16:21;101073.75;;;6.56;96.27
68525;BME280;55524;51.380;13.372;2023-02-17T00:18:52;101075.31;;;6.74;96.55
68525;BME280;55524;51.380;13.372;2023-02-17T00:21:21;101079.66;;;6.77;97.18
68525;BME280;55524;51.380;13.372;2023-02-17T00:23:48;101077.72;;;6.93;96.51
68525;BME280;55524;51.380;13.372;2023-02-17T00:26:15;101077.78;;;6.85;98.03
68525;BME280;55524;51.380;13.372;2023-02-17T00:28:42;101075.84;;;7.01;96.10
68525;BME280;55524;51.380;13.372;2023-02-17T00:31:12;101065.34;;;7.02;95.71
68525;BME280;55524;51.380;13.372;2023-02-17T00:33:39;101063.41;;;7.15;93.53
68525;BME280;55524;51.380;13.372;2023-02-17T00:36:09;101064.34;;;7.11;94.76
68525;BME280;55524;51.380;13.372;2023-02-17T00:38:35;101062.69;;;7.05;94.79
68525;BME280;55524;51.380;13.372;2023-02-17T00:41:02;101067.84;;;7.11;93.76
68525;BME280;55524;51.380;13.372;2023-02-17T00:43:28;101061.69;;;7.14;93.48
68525;BME280;55524;51.380;13.372;2023-02-17T00:45:55;101062.56;;;7.14;93.30
68525;BME280;55524;51.380;13.372;2023-02-17T00:48:21;101063.44;;;7.13;93.37
68525;BME280;55524;51.380;13.372;2023-02-17T00:50:48;101058.25;;;7.07;93.49
68525;BME280;55524;51.380;13.372;2023-02-17T00:53:14;101061.84;;;7.00;93.72
68525;BME280;55524;51.380;13.372;2023-02-17T00:55:41;101066.22;;;7.03;93.34
68525;BME280;55524;51.380;13.372;2023-02-17T00:58:07;101067.06;;;7.05;93.68
68525;BME280;55524;51.380;13.372;2023-02-17T01:00:34;101063.63;;;7.00;93.86
68525;BME280;55524;51.380;13.372;2023-02-17T01:03:00;101067.09;;;7.02;93.82
68525;BME280;55524;51.380;13.372;2023-02-17T01:05:26;101067.13;;;6.99;94.00
68525;BME280;55524;51.380;13.372;2023-02-17T01:07:52;101064.47;;;7.02;94.24
68525;BME280;55524;51.380;13.372;2023-02-17T01:10:19;101061.00;;;6.98;94.14
68525;BME280;55524;51.380;13.372;2023-02-17T01:12:45;101062.75;;;6.99;94.48
68525;BME280;55524;51.380;13.372;2023-02-17T01:15:11;101055.75;;;6.97;94.77
68525;BME280;55524;51.380;13.372;2023-02-17T01:17:38;101065.38;;;6.99;94.85
68525;BME280;55524;51.380;13.372;2023-02-17T01:20:05;101067.94;;;7.05;94.31
68525;BME280;55524;51.380;13.372;2023-02-17T01:22:31;101063.53;;;7.04;94.20
68525;BME280;55524;51.380;13.372;2023-02-17T01:24:58;101053.91;;;7.06;94.53
68525;BME280;55524;51.380;13.372;2023-02-17T01:27:24;101046.91;;;7.04;94.83
68525;BME280;55524;51.380;13.372;2023-02-17T01:29:50;101035.50;;;7.06;94.03
68525;BME280;55524;51.380;13.372;2023-02-17T01:32:17;101042.53;;;7.06;93.90
68525;BME280;55524;51.380;13.372;2023-02-17T01:34:43;101034.56;;;7.10;93.47
68525;BME280;55524;51.380;13.372;2023-02-17T01:37:09;101033.66;;;7.13;93.95
68525;BME280;55524;51.380;13.372;2023-02-17T01:39:35;101020.47;;;7.18;93.04
68525;BME280;55524;51.380;13.372;2023-02-17T01:42:02;101015.22;;;7.18;92.99
68525;BME280;55524;51.380;13.372;2023-02-17T01:44:31;101015.25;;;7.14;93.37
68525;BME280;55524;51.380;13.372;2023-02-17T01:46:58;101012.59;;;7.16;93.67
68525;BME280;55524;51.380;13.372;2023-02-17T01:49:32;101007.31;;;7.16;93.61
68525;BME280;55524;51.380;13.372;2023-02-17T01:52:21;101006.50;;;7.12;93.92
68525;BME280;55524;51.380;13.372;2023-02-17T01:54:56;100999.47;;;7.14;94.69
68525;BME280;55524;51.380;13.372;2023-02-17T01:57:26;100982.84;;;7.14;94.54
68525;BME280;55524;51.380;13.372;2023-02-17T01:59:55;100978.53;;;7.10;95.49
68525;BME280;55524;51.380;13.372;2023-02-17T02:02:22;100969.69;;;7.12;96.26
68525;BME280;55524;51.380;13.372;2023-02-17T02:04:51;100966.28;;;7.09;97.18
68525;BME280;55524;51.380;13.372;2023-02-17T02:07:27;100960.19;;;7.04;98.11
68525;BME280;55524;51.380;13.372;2023-02-17T02:09:57;100954.03;;;7.06;98.39
68525;BME280;55524;51.380;13.372;2023-02-17T02:12:29;100963.66;;;7.07;99.49
68525;BME280;55524;51.380;13.372;2023-02-17T02:14:59;100952.31;;;7.05;99.83
68525;BME280;55524;51.380;13.372;2023-02-17T02:17:35;100961.13;;;7.00;100.00
68525;BME280;55524;51.380;13.372;2023-02-17T02:34:03;100931.13;;;7.14;100.00
68525;BME280;55524;51.380;13.372;2023-02-17T02:37:11;100919.59;;;7.25;100.00
68525;BME280;55524;51.380;13.372;2023-02-17T02:39:41;100912.66;;;7.21;100.00
68525;BME280;55524;51.380;13.372;2023-02-17T02:42:15;100906.38;;;7.29;100.00
68525;BME280;55524;51.380;13.372;2023-02-17T02:44:42;100915.13;;;7.30;99.75
68525;BME280;55524;51.380;13.372;2023-02-17T02:47:41;100908.09;;;7.30;99.78
68525;BME280;55524;51.380;13.372;2023-02-17T02:50:10;100901.81;;;7.39;98.76
68525;BME280;55524;51.380;13.372;2023-02-17T02:52:56;100900.06;;;7.39;99.02
68525;BME280;55524;51.380;13.372;2023-02-17T02:58:12;100893.88;;;7.42;99.01
68525;BME280;55524;51.380;13.372;2023-02-17T03:06:35;100887.72;;;7.45;98.14
68525;BME280;55524;51.380;13.372;2023-02-17T03:09:11;100886.88;;;7.43;98.31
68525;BME280;55524;51.380;13.372;2023-02-17T03:11:40;100886.69;;;7.53;96.94
68525;BME280;55524;51.380;13.372;2023-02-17T03:14:13;100881.44;;;7.52;96.94
68525;BME280;55524;51.380;13.372;2023-02-17T03:16:41;100881.44;;;7.53;97.12
68525;BME280;55524;51.380;13.372;2023-02-17T03:19:08;100883.06;;;7.59;96.68
68525;BME280;55524;51.380;13.372;2023-02-17T03:21:42;100884.84;;;7.58;96.36
68525;BME280;55524;51.380;13.372;2023-02-17T03:24:12;100878.59;;;7.64;95.80
68525;BME280;55524;51.380;13.372;2023-02-17T03:26:38;100875.09;;;7.65;96.40
68525;BME280;55524;51.380;13.372;2023-02-17T03:29:04;100879.53;;;7.61;96.24
68525;BME280;55524;51.380;13.372;2023-02-17T03:31:31;100882.06;;;7.66;96.94
68525;BME280;55524;51.380;13.372;2023-02-17T03:33:58;100875.03;;;7.68;97.04
68525;BME280;55524;51.380;13.372;2023-02-17T03:36:24;100881.22;;;7.64;97.57
68525;BME280;55524;51.380;13.372;2023-02-17T03:38:51;100875.09;;;7.65;97.80
68525;BME280;55524;51.380;13.372;2023-02-17T03:41:17;100873.38;;;7.62;99.37
68525;BME280;55524;51.380;13.372;2023-02-17T03:43:43;100864.66;;;7.60;99.54
68525;BME280;55524;51.380;13.372;2023-02-17T03:46:11;100874.34;;;7.57;100.00
68525;BME280;55524;51.380;13.372;2023-02-17T03:48:38;100871.81;;;7.52;100.00
68525;BME280;55524;51.380;13.372;2023-02-17T03:51:17;100876.25;;;7.47;100.00
68525;BME280;55524;51.380;13.372;2023-02-17T03:53:44;100892.16;;;7.41;100.00
68525;BME280;55524;51.380;13.372;2023-02-17T03:56:12;100886.22;;;7.28;100.00
68525;BME280;55524;51.380;13.372;2023-02-17T03:58:39;100876.72;;;7.20;100.00
68525;BME280;55524;51.380;13.372;2023-02-17T04:01:06;100887.44;;;7.09;100.00
68525;BME280;55524;51.380;13.372;2023-02-17T04:03:33;100887.56;;;7.01;100.00
68525;BME280;55524;51.380;13.372;2023-02-17T04:06:00;100884.09;;;6.98;100.00
68525;BME280;55524;51.380;13.372;2023-02-17T04:08:27;100877.22;;;6.90;100.00
68525;BME280;55524;51.380;13.372;2023-02-17T04:10:55;100880.72;;;6.88;100.00
68525;BME280;55524;51.380;13.372;2023-02-17T04:13:22;100871.13;;;6.87;100.00
68525;BME280;55524;51.380;13.372;2023-02-17T04:15:49;100869.44;;;6.83;100.00
68525;BME280;55524;51.380;13.372;2023-02-17T04:18:16;100874.69;;;6.83;100.00
68525;BME280;55524;51.380;13.372;2023-02-17T04:20:43;100857.25;;;6.79;100.00
68525;BME280;55524;51.380;13.372;2023-02-17T04:23:10;100851.19;;;6.72;100.00
68525;BME280;55524;51.380;13.372;2023-02-17T04:25:37;100847.75;;;6.70;100.00
68525;BME280;55524;51.380;13.372;2023-02-17T04:28:04;100847.00;;;6.60;100.00
68525;BME280;55524;51.380;13.372;2023-02-17T04:30:31;100835.63;;;6.60;100.00
68525;BME280;55524;51.380;13.372;2023-02-17T04:32:58;100844.41;;;6.59;100.00
68525;BME280;55524;51.380;13.372;2023-02-17T04:35:25;100833.88;;;6.60;100.00
68525;BME280;55524;51.380;13.372;2023-02-17T04:37:52;100835.63;;;6.61;100.00
68525;BME280;55524;51.380;13.372;2023-02-17T04:40:18;100833.91;;;6.59;100.00
68525;BME280;55524;51.380;13.372;2023-02-17T04:42:45;100827.75;;;6.60;100.00
68525;BME280;55524;51.380;13.372;2023-02-17T04:45:12;100824.22;;;6.61;100.00
68525;BME280;55524;51.380;13.372;2023-02-17T04:47:38;100823.38;;;6.62;100.00
68525;BME280;55524;51.380;13.372;2023-02-17T04:50:06;100829.38;;;6.69;100.00
68525;BME280;55524;51.380;13.372;2023-02-17T04:52:33;100827.59;;;6.71;100.00
68525;BME280;55524;51.380;13.372;2023-02-17T04:54:59;100824.94;;;6.72;100.00
68525;BME280;55524;51.380;13.372;2023-02-17T04:57:26;100832.69;;;6.81;100.00
68525;BME280;55524;51.380;13.372;2023-02-17T04:59:53;100829.13;;;6.85;100.00
68525;BME280;55524;51.380;13.372;2023-02-17T05:02:19;100824.78;;;6.83;100.00
68525;BME280;55524;51.380;13.372;2023-02-17T05:04:45;100828.19;;;6.88;100.00
68525;BME280;55524;51.380;13.372;2023-02-17T05:07:12;100818.44;;;6.96;100.00
68525;BME280;55524;51.380;13.372;2023-02-17T05:09:38;100810.53;;;6.98;100.00
68525;BME280;55524;51.380;13.372;2023-02-17T05:12:04;100809.63;;;6.99;100.00
68525;BME280;55524;51.380;13.372;2023-02-17T05:14:31;100807.00;;;6.99;100.00
68525;BME280;55524;51.380;13.372;2023-02-17T05:16:57;100806.09;;;7.01;100.00
68525;BME280;55524;51.380;13.372;2023-02-17T05:19:24;100808.59;;;7.07;100.00
68525;BME280;55524;51.380;13.372;2023-02-17T05:21:50;100806.75;;;7.12;100.00
68525;BME280;55524;51.380;13.372;2023-02-17T05:24:16;100796.28;;;7.11;100.00
68525;BME280;55524;51.380;13.372;2023-02-17T05:26:43;100794.47;;;7.14;100.00
68525;BME280;55524;51.380;13.372;2023-02-17T05:29:09;100792.66;;;7.18;100.00
68525;BME280;55524;51.380;13.372;2023-02-17T05:31:35;100793.47;;;7.22;100.00
68525;BME280;55524;51.380;13.372;2023-02-17T05:34:02;100788.13;;;7.26;100.00
68525;BME280;55524;51.380;13.372;2023-02-17T05:36:28;100786.28;;;7.33;100.00
68525;BME280;55524;51.380;13.372;2023-02-17T05:38:54;100783.50;;;7.39;100.00
68525;BME280;55524;51.380;13.372;2023-02-17T05:41:21;100784.38;;;7.39;100.00
68525;BME280;55524;51.380;13.372;2023-02-17T05:43:47;100779.91;;;7.45;100.00
68525;BME280;55524;51.380;13.372;2023-02-17T05:46:14;100781.69;;;7.43;100.00
68525;BME280;55524;51.380;13.372;2023-02-17T05:48:40;100778.19;;;7.42;100.00
68525;BME280;55524;51.380;13.372;2023-02-17T05:51:07;100771.13;;;7.44;100.00
68525;BME280;55524;51.380;13.372;2023-02-17T05:53:33;100772.66;;;7.56;100.00
68525;BME280;55524;51.380;13.372;2023-02-17T05:56:00;100774.38;;;7.58;100.00
68525;BME280;55524;51.380;13.372;2023-02-17T05:58:26;100778.78;;;7.58;100.00
68525;BME280;55524;51.380;13.372;2023-02-17T06:00:53;100770.72;;;7.66;100.00
68525;BME280;55524;51.380;13.372;2023-02-17T06:03:19;100765.47;;;7.66;100.00
68525;BME280;55524;51.380;13.372;2023-02-17T06:05:46;100763.66;;;7.69;100.00
68525;BME280;55524;51.380;13.372;2023-02-17T06:08:12;100764.47;;;7.73;100.00
68525;BME280;55524;51.380;13.372;2023-02-17T06:10:40;100774.88;;;7.77;100.00
68525;BME280;55524;51.380;13.372;2023-02-17T06:13:06;100770.47;;;7.78;100.00
68525;BME280;55524;51.380;13.372;2023-02-17T06:15:32;100781.00;;;7.78;100.00
68525;BME280;55524;51.380;13.372;2023-02-17T06:17:59;100773.06;;;7.79;100.00
68525;BME280;55524;51.380;13.372;2023-02-17T06:20:25;100774.81;;;7.80;100.00
68525;BME280;55524;51.380;13.372;2023-02-17T06:22:51;100778.47;;;7.73;100.00
68525;BME280;55524;51.380;13.372;2023-02-17T06:25:20;100769.47;;;7.85;100.00
68525;BME280;55524;51.380;13.372;2023-02-17T06:27:46;100773.81;;;7.86;100.00
68525;BME280;55524;51.380;13.372;2023-02-17T06:30:13;100765.81;;;7.92;100.00
68525;BME280;55524;51.380;13.372;2023-02-17T06:32:39;100765.88;;;7.89;100.00
68525;BME280;55524;51.380;13.372;2023-02-17T06:35:09;100761.25;;;8.00;100.00
68525;BME280;55524;51.380;13.372;2023-02-17T06:37:37;100767.38;;;7.99;100.00
68525;BME280;55524;51.380;13.372;2023-02-17T06:40:04;100770.91;;;7.98;100.00
68525;BME280;55524;51.380;13.372;2023-02-17T06:42:30;100762.09;;;8.01;100.00
68525;BME280;55524;51.380;13.372;2023-02-17T06:44:56;100769.78;;;8.10;100.00
68525;BME280;55524;51.380;13.372;2023-02-17T06:47:23;100759.25;;;8.10;100.00
68525;BME280;55524;51.380;13.372;2023-02-17T06:49:49;100763.66;;;8.09;100.00
68525;BME280;55524;51.380;13.372;2023-02-17T06:52:15;100762.75;;;8.12;100.00
68525;BME280;55524;51.380;13.372;2023-02-17T06:54:42;100760.09;;;8.12;100.00
68525;BME280;55524;51.380;13.372;2023-02-17T06:57:08;100769.78;;;8.10;100.00
68525;BME280;55524;51.380;13.372;2023-02-17T06:59:34;100763.44;;;8.19;100.00
68525;BME280;55524;51.380;13.372;2023-02-17T07:02:00;100768.00;;;8.12;100.00
68525;BME280;55524;51.380;13.372;2023-02-17T07:04:27;100765.22;;;8.20;100.00
68525;BME280;55524;51.380;13.372;2023-02-17T07:06:53;100764.31;;;8.21;100.00
68525;BME280;55524;51.380;13.372;2023-02-17T07:09:19;100774.63;;;8.30;100.00
68525;BME280;55524;51.380;13.372;2023-02-17T07:11:46;100773.78;;;8.28;100.00
68525;BME280;55524;51.380;13.372;2023-02-17T07:14:13;100776.44;;;8.28;100.00
68525;BME280;55524;51.380;13.372;2023-02-17T07:16:39;100774.69;;;8.27;100.00
68525;BME280;55524;51.380;13.372;2023-02-17T07:19:06;100765.00;;;8.29;100.00
68525;BME280;55524;51.380;13.372;2023-02-17T07:21:32;100765.06;;;8.26;100.00
68525;BME280;55524;51.380;13.372;2023-02-17T07:23:58;100758.06;;;8.25;100.00
68525;BME280;55524;51.380;13.372;2023-02-17T07:26:24;100759.56;;;8.35;100.00
68525;BME280;55524;51.380;13.372;2023-02-17T07:28:51;100760.53;;;8.32;100.00
68525;BME280;55524;51.380;13.372;2023-02-17T07:31:18;100757.09;;;8.29;100.00
68525;BME280;55524;51.380;13.372;2023-02-17T07:33:44;100759.53;;;8.38;100.00
68525;BME280;55524;51.380;13.372;2023-02-17T07:36:15;100756.06;;;8.36;100.00
68525;BME280;55524;51.380;13.372;2023-02-17T07:38:42;100758.66;;;8.37;100.00
68525;BME280;55524;51.380;13.372;2023-02-17T07:41:17;100763.00;;;8.40;100.00
68525;BME280;55524;51.380;13.372;2023-02-17T07:43:44;100762.03;;;8.44;100.00
68525;BME280;55524;51.380;13.372;2023-02-17T07:46:12;100769.03;;;8.45;100.00
68525;BME280;55524;51.380;13.372;2023-02-17T07:48:38;100767.16;;;8.50;100.00
68525;BME280;55524;51.380;13.372;2023-02-17T07:51:10;100765.28;;;8.55;100.00
68525;BME280;55524;51.380;13.372;2023-02-17T07:53:37;100766.91;;;8.61;100.00
68525;BME280;55524;51.380;13.372;2023-02-17T07:56:08;100768.50;;;8.67;100.00
68525;BME280;55524;51.380;13.372;2023-02-17T07:58:36;100777.25;;;8.69;100.00
68525;BME280;55524;51.380;13.372;2023-02-17T08:01:11;100776.34;;;8.70;100.00
68525;BME280;55524;51.380;13.372;2023-02-17T08:03:39;100774.50;;;8.73;100.00
68525;BME280;55524;51.380;13.372;2023-02-17T08:06:14;100771.88;;;8.73;100.00
68525;BME280;55524;51.380;13.372;2023-02-17T08:08:41;100776.34;;;8.70;100.00
68525;BME280;55524;51.380;13.372;2023-02-17T08:11:26;100777.06;;;8.76;100.00
68525;BME280;55524;51.380;13.372;2023-02-17T08:14:11;100772.59;;;8.80;100.00
68525;BME280;55524;51.380;13.372;2023-02-17T08:16:41;100780.44;;;8.83;100.00
68525;BME280;55524;51.380;13.372;2023-02-17T08:19:07;100779.44;;;8.87;100.00
68525;BME280;55524;51.380;13.372;2023-02-17T08:21:34;100774.19;;;8.85;100.00
68525;BME280;55524;51.380;13.372;2023-02-17T08:24:00;100762.78;;;8.85;100.00
68525;BME280;55524;51.380;13.372;2023-02-17T08:26:27;100765.47;;;8.83;100.00
68525;BME280;55524;51.380;13.372;2023-02-17T08:28:54;100762.72;;;8.88;100.00
68525;BME280;55524;51.380;13.372;2023-02-17T08:31:22;100753.84;;;8.91;100.00
68525;BME280;55524;51.380;13.372;2023-02-17T08:33:50;100752.84;;;8.96;100.00
68525;BME280;55524;51.380;13.372;2023-02-17T08:36:16;100743.97;;;9.00;100.00
68525;BME280;55524;51.380;13.372;2023-02-17T08:38:43;100748.16;;;9.07;100.00
68525;BME280;55524;51.380;13.372;2023-02-17T08:41:20;100744.53;;;9.11;100.00
68525;BME280;55524;51.380;13.372;2023-02-17T08:43:47;100736.44;;;9.18;100.00
68525;BME280;55524;51.380;13.372;2023-02-17T08:46:14;100731.03;;;9.24;100.00
68525;BME280;55524;51.380;13.372;2023-02-17T08:48:40;100724.69;;;9.31;100.00
68525;BME280;55524;51.380;13.372;2023-02-17T08:51:07;100715.94;;;9.29;100.00
68525;BME280;55524;51.380;13.372;2023-02-17T08:53:36;100706.94;;;9.36;100.00
68525;BME280;55524;51.380;13.372;2023-02-17T08:56:03;100698.00;;;9.42;99.94
68525;BME280;55524;51.380;13.372;2023-02-17T08:58:29;100703.13;;;9.46;99.18
68525;BME280;55524;51.380;13.372;2023-02-17T09:00:55;100707.44;;;9.50;99.20
68525;BME280;55524;51.380;13.372;2023-02-17T09:03:22;100708.16;;;9.55;99.09
68525;BME280;55524;51.380;13.372;2023-02-17T09:05:48;100709.03;;;9.56;98.49
68525;BME280;55524;51.380;13.372;2023-02-17T09:08:14;100712.56;;;9.55;98.42
68525;BME280;55524;51.380;13.372;2023-02-17T09:10:40;100708.25;;;9.52;98.15
68525;BME280;55524;51.380;13.372;2023-02-17T09:13:07;100706.66;;;9.47;98.54
68525;BME280;55524;51.380;13.372;2023-02-17T09:15:33;100706.53;;;9.51;98.61
68525;BME280;55524;51.380;13.372;2023-02-17T09:18:00;100702.88;;;9.55;98.76
68525;BME280;55524;51.380;13.372;2023-02-17T09:20:28;100695.59;;;9.64;97.90
68525;BME280;55524;51.380;13.372;2023-02-17T09:22:54;100708.88;;;9.60;98.42
68525;BME280;55524;51.380;13.372;2023-02-17T09:25:20;100699.16;;;9.63;97.42
68525;BME280;55524;51.380;13.372;2023-02-17T09:27:47;100687.59;;;9.67;97.64
68525;BME280;55524;51.380;13.372;2023-02-17T09:30:13;100684.91;;;9.68;96.68
68525;BME280;55524;51.380;13.372;2023-02-17T09:32:43;100685.75;;;9.70;97.55
68525;BME280;55524;51.380;13.372;2023-02-17T09:35:14;100683.84;;;9.74;98.13
68525;BME280;55524;51.380;13.372;2023-02-17T09:37:41;100682.91;;;9.76;97.14
68525;BME280;55524;51.380;13.372;2023-02-17T09:40:13;100680.19;;;9.79;97.08
68525;BME280;55524;51.380;13.372;2023-02-17T09:42:40;100680.31;;;9.75;96.14
68525;BME280;55524;51.380;13.372;2023-02-17T09:45:10;100676.75;;;9.76;97.37
68525;BME280;55524;51.380;13.372;2023-02-17T09:48:06;100678.41;;;9.80;96.89
68525;BME280;55524;51.380;13.372;2023-02-17T09:56:02;100671.81;;;9.93;95.70
68525;BME280;55524;51.380;13.372;2023-02-17T09:58:47;100653.88;;;10.04;95.95
68525;BME280;55524;51.380;13.372;2023-02-17T10:01:25;100646.66;;;10.09;95.08
68525;BME280;55524;51.380;13.372;2023-02-17T10:04:21;100642.91;;;10.17;94.21
68525;BME280;55524;51.380;13.372;2023-02-17T10:07:00;100645.38;;;10.23;94.90
68525;BME280;55524;51.380;13.372;2023-02-17T10:12:19;100622.44;;;10.25;93.90
68525;BME280;55524;51.380;13.372;2023-02-17T10:14:54;100631.97;;;10.29;94.27
68525;BME280;55524;51.380;13.372;2023-02-17T10:17:43;100619.75;;;10.26;93.77
68525;BME280;55524;51.380;13.372;2023-02-17T10:20:13;100618.75;;;10.30;94.44
68525;BME280;55524;51.380;13.372;2023-02-17T10:22:51;100599.22;;;10.34;93.58
68525;BME280;55524;51.380;13.372;2023-02-17T10:25:32;100598.25;;;10.37;93.63
68525;BME280;55524;51.380;13.372;2023-02-17T10:28:15;100604.34;;;10.39;94.20
68525;BME280;55524;51.380;13.372;2023-02-17T10:36:29;100597.50;;;10.33;94.64
68525;BME280;55524;51.380;13.372;2023-02-17T10:39:15;100592.34;;;10.29;95.19
68525;BME280;55524;51.380;13.372;2023-02-17T10:41:51;100582.69;;;10.29;94.32
68525;BME280;55524;51.380;13.372;2023-02-17T10:44:22;100589.22;;;10.18;95.74
68525;BME280;55524;51.380;13.372;2023-02-17T10:46:50;100590.09;;;10.17;96.67
68525;BME280;55524;51.380;13.372;2023-02-17T10:49:30;100580.66;;;10.09;97.73
68525;BME280;55524;51.380;13.372;2023-02-17T10:52:09;100578.16;;;10.05;99.28
68525;BME280;55524;51.380;13.372;2023-02-17T10:57:14;100558.72;;;10.07;99.35
68525;BME280;55524;51.380;13.372;2023-02-17T10:59:47;100560.66;;;10.02;99.93
68525;BME280;55524;51.380;13.372;2023-02-17T11:02:50;100552.63;;;10.05;100.00
68525;BME280;55524;51.380;13.372;2023-02-17T11:05:32;100549.88;;;10.08;99.93
68525;BME280;55524;51.380;13.372;2023-02-17T11:08:05;100543.41;;;10.17;99.55
68525;BME280;55524;51.380;13.372;2023-02-17T11:10:39;100541.50;;;10.22;98.48
68525;BME280;55524;51.380;13.372;2023-02-17T11:13:36;100538.72;;;10.27;99.33
68525;BME280;55524;51.380;13.372;2023-02-17T11:16:03;100536.00;;;10.30;97.55
68525;BME280;55524;51.380;13.372;2023-02-17T11:18:35;100533.34;;;10.30;98.04
68525;BME280;55524;51.380;13.372;2023-02-17T11:21:09;100524.41;;;10.34;97.86
68525;BME280;55524;51.380;13.372;2023-02-17T11:26:23;100499.00;;;10.55;96.79
68525;BME280;55524;51.380;13.372;2023-02-17T11:28:50;100499.63;;;10.62;95.50
68525;BME280;55524;51.380;13.372;2023-02-17T11:31:28;100491.13;;;10.77;94.97
68525;BME280;55524;51.380;13.372;2023-02-17T11:33:55;100470.50;;;10.87;95.37
68525;BME280;55524;51.380;13.372;2023-02-17T11:36:28;100471.19;;;10.92;94.91
68525;BME280;55524;51.380;13.372;2023-02-17T11:38:55;100475.59;;;10.91;93.83
68525;BME280;55524;51.380;13.372;2023-02-17T11:41:23;100471.44;;;10.86;93.20
68525;BME280;55524;51.380;13.372;2023-02-17T11:43:57;100467.94;;;10.85;94.33
68525;BME280;55524;51.380;13.372;2023-02-17T11:49:01;100468.81;;;10.84;94.52
68525;BME280;55524;51.380;13.372;2023-02-17T12:00:13;100446.88;;;10.82;95.24
68525;BME280;55524;51.380;13.372;2023-02-17T12:08:44;100436.56;;;10.98;93.69
68525;BME280;55524;51.380;13.372;2023-02-17T12:11:55;100419.59;;;11.03;93.92
68525;BME280;55524;51.380;13.372;2023-02-17T12:22:19;100398.69;;;11.41;91.24
68525;BME280;55524;51.380;13.372;2023-02-17T12:27:48;100389.09;;;11.59;90.64
68525;BME280;55524;51.380;13.372;2023-02-17T12:33:37;100386.06;;;11.68;90.37
68525;BME280;55524;51.380;13.372;2023-02-17T12:35:57;100376.25;;;11.70;90.82
68525;BME280;55524;51.380;13.372;2023-02-17T12:38:54;100369.50;;;11.63;90.39
68525;BME280;55524;51.380;13.372;2023-02-17T12:41:38;100370.34;;;11.64;90.07
68525;BME280;55524;51.380;13.372;2023-02-17T12:44:17;100358.91;;;11.63;90.00
68525;BME280;55524;51.380;13.372;2023-02-17T12:46:50;100350.50;;;11.74;91.00
68525;BME280;55524;51.380;13.372;2023-02-17T12:50:13;100346.03;;;11.76;90.84
68525;BME280;55524;51.380;13.372;2023-02-17T12:52:31;100334.84;;;11.90;90.15
68525;BME280;55524;51.380;13.372;2023-02-17T12:55:15;100350.47;;;11.96;88.96
68525;BME280;55524;51.380;13.372;2023-02-17T12:58:06;100350.91;;;12.05;89.30
68525;BME280;55524;51.380;13.372;2023-02-17T13:03:05;100341.13;;;12.26;89.36
68525;BME280;55524;51.380;13.372;2023-02-17T13:08:40;100328.53;;;12.32;88.66
68525;BME280;55524;51.380;13.372;2023-02-17T13:11:23;100310.75;;;12.34;88.09
68525;BME280;55524;51.380;13.372;2023-02-17T13:13:50;100319.56;;;12.34;87.79
68525;BME280;55524;51.380;13.372;2023-02-17T13:16:16;100311.75;;;12.31;88.31
68525;BME280;55524;51.380;13.372;2023-02-17T13:18:45;100305.53;;;12.32;88.43
68525;BME280;55524;51.380;13.372;2023-02-17T13:24:02;100311.13;;;12.26;88.90
68525;BME280;55524;51.380;13.372;2023-02-17T13:26:31;100301.50;;;12.23;88.56
68525;BME280;55524;51.380;13.372;2023-02-17T13:31:56;100300.38;;;12.29;88.90
68525;BME280;55524;51.380;13.372;2023-02-17T13:36:50;100288.69;;;12.33;88.82
68525;BME280;55524;51.380;13.372;2023-02-17T13:41:57;100281.47;;;12.37;89.08
68525;BME280;55524;51.380;13.372;2023-02-17T13:46:51;100275.31;;;12.36;89.52
68525;BME280;55524;51.380;13.372;2023-02-17T13:49:25;100255.81;;;12.37;89.39
68525;BME280;55524;51.380;13.372;2023-02-17T13:51:53;100264.41;;;12.42;89.04
68525;BME280;55524;51.380;13.372;2023-02-17T13:54:21;100249.53;;;12.40;89.68
68525;BME280;55524;51.380;13.372;2023-02-17T13:56:52;100253.66;;;12.45;89.41
68525;BME280;55524;51.380;13.372;2023-02-17T13:59:25;100256.03;;;12.51;88.48
68525;BME280;55524;51.380;13.372;2023-02-17T14:01:53;100238.16;;;12.55;88.34
68525;BME280;55524;51.380;13.372;2023-02-17T14:04:26;100241.88;;;12.51;88.01
68525;BME280;55524;51.380;13.372;2023-02-17T14:06:55;100244.25;;;12.57;87.88
68525;BME280;55524;51.380;13.372;2023-02-17T14:09:25;100253.28;;;12.53;87.47
68525;BME280;55524;51.380;13.372;2023-02-17T14:11:53;100247.91;;;12.54;87.05
68525;BME280;55524;51.380;13.372;2023-02-17T14:14:23;100239.19;;;12.52;87.17
68525;BME280;55524;51.380;13.372;2023-02-17T14:17:27;100242.41;;;12.59;87.20
68525;BME280;55524;51.380;13.372;2023-02-17T14:19:55;100246.06;;;12.57;87.94
68525;BME280;55524;51.380;13.372;2023-02-17T14:22:29;100253.91;;;12.58;87.18
68525;BME280;55524;51.380;13.372;2023-02-17T14:25:03;100249.56;;;12.57;87.23
68525;BME280;55524;51.380;13.372;2023-02-17T14:27:41;100238.88;;;12.59;86.63
68525;BME280;55524;51.380;13.372;2023-02-17T14:30:13;100239.56;;;12.62;86.45